METAR Data
IDs: Format: Raw Decoded Include TAF

Data at: 0402 UTC 24 Jun 2021

METAR for:KFDY (Findlay Arpt, OH, US)
Text:KFDY 240353Z AUTO 17004KT 10SM CLR 18/12 A3015 RMK AO2 SLP204 T01830117
Temperature: 18.3°C ( 65°F)
Dewpoint: 11.7°C ( 53°F) [RH = 65%]
Pressure (altimeter):30.15 inches Hg (1021.1 mb) [Sea level pressure: 1020.4 mb]
Winds:from the S (170 degrees) at 5 MPH (4 knots; 2.1 m/s)
Visibility:10 or more sm (16+ km)
Ceiling:at least 12,000 feet AGL
Clouds:sky clear below 12,000 feet AGL
QC Flag:automated observation with no human augmentation